Pagina principală
METAR-TAF:

METAR-TAF

Aeroporturi :

Port Moresby, Papua-Noua Guinee

Latitudine: 09-26S, longitudine: 147-13E, elevație: 38 m

Observații meteo curente

Raportul a fost făcut în urmă cu 1 oră și 1 de minute, la 15:00 UTC
Vânt 5 kt de la Nord-vest
Temperatură 25°C
Umiditate 94%
Presiune 1007 hPa
Vizibilitate de 10 km sau mai mult
Nori puțini la o înălțime de 5000 picior

METAR: AYPY 181500Z 32005KT 9999 FEW050 25/24 Q1007

Ora: 02:01 (16:01 UTC)

Prognoză

Raportul a fost făcut în urmă cu 12 ore și 0 de minute, la 04:01 UTC
Prognoză valabilă de la 18 ora 06 UTC la 19 ora 06 UTC
Vânt 12 kt de la Vest
Vizibilitate de 10 km sau mai mult
Nori împrăștiați la o înălțime de 2000 picior
Nori împrăștiați la o înălțime de 4000 picior
De la 18 ora 0900 UTC
Vânt 8 kt de la Vest
Vizibilitate de 10 km sau mai mult
Nori împrăștiați la o înălțime de 4000 picior

TAF: AYPY 180401Z 1806/1906 28012KT 9999 SCT020 SCT040 FM180900 28008KT 9999 SCT040

Observații și prognoze meteo pentru peste 4.000 de aeroporturi (rapoarte METAR și TAF).

Stațiile disponibile sunt reprezentate pe hartă prin puncte galbene și roșii.

Țineți indicatorul mouse-ului pe punctul dorit pentru a vedea denumirea stației.

Apoi, faceți clic pentru a vedea observațiile și prognozele meteorologice.

Pentru a schimba harta: Pentru mărire, faceți clic pe butoanele verzi cu cruce neagră; pentru micșorare, pe butonul verde cu o liniuță; pentru hărți învecinate, pe săgețile verzi.


METAR-TAF: